createdAt,value
2019-06-08T00:01:14.368Z,24.70
2019-06-08T00:02:51.846Z,22.83
2019-06-08T00:04:28.397Z,24.37
2019-06-08T00:06:05.951Z,23.70
2019-06-08T00:07:42.682Z,23.33
2019-06-08T00:09:20.869Z,24.07
2019-06-08T00:10:58.519Z,23.37
2019-06-08T00:12:35.942Z,24.10
2019-06-08T00:14:13.113Z,25.23
2019-06-08T00:15:50.656Z,24.47
2019-06-08T00:17:37.680Z,25.27
2019-06-08T00:19:06.479Z,23.40
2019-06-08T00:20:42.946Z,24.53
2019-06-08T00:22:21.872Z,24.13
2019-06-08T00:23:58.680Z,24.80
2019-06-08T00:25:36.068Z,24.40
2019-06-08T00:27:13.946Z,25.23
2019-06-08T00:28:51.353Z,24.93
2019-06-08T00:30:28.822Z,25.73
2019-06-08T00:32:06.382Z,25.20
2019-06-08T00:33:42.951Z,25.77
2019-06-08T00:35:20.786Z,24.97
2019-06-08T00:36:57.377Z,25.97
2019-06-08T00:38:34.781Z,24.73
2019-06-08T00:40:11.559Z,25.57
2019-06-08T00:41:48.844Z,25.67
2019-06-08T00:43:25.572Z,25.73
2019-06-08T00:45:03.325Z,27.20
2019-06-08T00:46:40.894Z,26.97
2019-06-08T00:48:19.521Z,26.03
2019-06-08T00:49:56.278Z,26.67
2019-06-08T00:51:33.592Z,27.20
2019-06-08T00:53:10.156Z,27.10
2019-06-08T00:54:47.405Z,27.37
2019-06-08T00:56:26.047Z,27.70
2019-06-08T00:58:03.437Z,27.87
2019-06-08T00:59:40.197Z,26.93
2019-06-08T01:01:22.073Z,27.40
2019-06-08T01:02:55.902Z,26.63
2019-06-08T01:04:33.303Z,27.77
2019-06-08T01:06:09.939Z,28.63
2019-06-08T01:07:47.389Z,28.30
2019-06-08T01:09:24.238Z,27.70
2019-06-08T01:11:01.797Z,27.57
2019-06-08T01:12:38.577Z,28.13
2019-06-08T01:14:27.311Z,28.03
2019-06-08T01:16:04.710Z,27.23
2019-06-08T01:17:41.149Z,27.60
2019-06-08T01:19:19.199Z,119.43
2019-06-08T01:20:56.048Z,38.47
2019-06-08T01:22:34.327Z,36.43
2019-06-08T01:24:10.899Z,32.10
2019-06-08T01:25:48.236Z,29.97
2019-06-08T01:27:26.001Z,29.57
2019-06-08T01:29:03.622Z,27.87
2019-06-08T01:30:40.269Z,27.07
2019-06-08T01:32:17.554Z,28.27
2019-06-08T01:33:54.095Z,27.93
2019-06-08T01:35:31.419Z,28.97
2019-06-08T01:37:07.924Z,29.67
2019-06-08T01:38:45.241Z,29.57
2019-06-08T01:40:23.257Z,29.77
2019-06-08T01:42:00.720Z,30.73
2019-06-08T01:43:37.298Z,28.83
2019-06-08T01:45:16.356Z,29.07
2019-06-08T01:46:54.169Z,28.77
2019-06-08T01:48:30.700Z,29.47
2019-06-08T01:50:08.997Z,29.27
2019-06-08T01:51:45.572Z,29.77
2019-06-08T01:53:23.032Z,30.50
2019-06-08T01:54:59.535Z,30.33
2019-06-08T01:56:36.937Z,30.00
2019-06-08T01:58:13.585Z,29.67
2019-06-08T01:59:50.838Z,29.70
2019-06-08T02:01:27.788Z,29.83
2019-06-08T02:03:05.315Z,29.30
2019-06-08T02:04:41.954Z,29.87
2019-06-08T02:06:19.294Z,28.80
2019-06-08T02:07:55.831Z,29.80
2019-06-08T02:09:33.328Z,29.10
2019-06-08T02:11:09.934Z,29.47
2019-06-08T02:12:47.194Z,28.30
2019-06-08T02:14:24.969Z,29.03
2019-06-08T02:16:02.544Z,29.37
2019-06-08T02:17:39.151Z,28.23
2019-06-08T02:19:16.365Z,29.67
2019-06-08T02:20:53.486Z,28.40
2019-06-08T02:22:31.029Z,29.37
2019-06-08T02:24:07.711Z,29.63
2019-06-08T02:25:45.104Z,29.10
2019-06-08T02:27:21.882Z,29.27
2019-06-08T02:28:59.228Z,28.13
2019-06-08T02:30:39.742Z,30.10
2019-06-08T02:32:15.755Z,29.33
2019-06-08T02:33:52.370Z,29.03
2019-06-08T02:35:30.711Z,30.37
2019-06-08T02:37:07.551Z,28.73
2019-06-08T02:38:44.877Z,28.87
2019-06-08T02:40:21.786Z,28.97
2019-06-08T02:41:59.170Z,30.37
2019-06-08T02:43:37.693Z,30.57
2019-06-08T02:45:15.409Z,30.57
2019-06-08T02:46:51.983Z,30.63
2019-06-08T02:48:30.026Z,31.33
2019-06-08T02:50:12.138Z,30.73
2019-06-08T02:51:50.506Z,34.03
2019-06-08T02:53:29.548Z,31.43
2019-06-08T02:55:08.907Z,30.13
2019-06-08T02:56:48.062Z,30.63
2019-06-08T02:58:25.873Z,28.40
2019-06-08T03:00:05.938Z,29.33
2019-06-08T03:01:45.963Z,28.73
2019-06-08T03:03:22.978Z,28.00
2019-06-08T03:05:03.915Z,26.93
2019-06-08T03:06:43.879Z,27.33
2019-06-08T03:08:22.350Z,26.00
2019-06-08T03:10:03.018Z,26.33
2019-06-08T03:11:41.524Z,26.47
2019-06-08T03:13:19.066Z,25.83
2019-06-08T03:14:57.045Z,25.03
2019-06-08T03:16:35.581Z,25.73
2019-06-08T03:18:12.477Z,24.67
2019-06-08T03:19:49.151Z,24.00
2019-06-08T03:21:26.649Z,24.07
2019-06-08T03:23:03.189Z,24.20
2019-06-08T03:24:41.471Z,23.93
2019-06-08T03:26:18.256Z,24.03
2019-06-08T03:27:55.585Z,24.70
2019-06-08T03:29:32.454Z,23.20
2019-06-08T03:31:10.047Z,23.47
2019-06-08T03:32:55.187Z,22.30
2019-06-08T03:34:25.660Z,21.50
2019-06-08T03:36:02.134Z,20.93
2019-06-08T03:37:40.093Z,21.83
2019-06-08T03:39:18.102Z,20.83
2019-06-08T03:40:55.898Z,20.43
2019-06-08T03:42:32.357Z,20.60
2019-06-08T03:44:09.780Z,20.73
2019-06-08T03:45:46.365Z,19.87
2019-06-08T03:47:23.739Z,20.93
2019-06-08T03:49:00.208Z,21.40
2019-06-08T03:50:39.252Z,21.57
2019-06-08T03:52:15.676Z,21.70
2019-06-08T03:53:53.009Z,21.47
2019-06-08T03:55:29.518Z,20.53
2019-06-08T03:57:07.076Z,21.03
2019-06-08T03:58:46.816Z,21.13
2019-06-08T04:00:23.767Z,20.60
2019-06-08T04:02:00.321Z,19.63
2019-06-08T04:03:39.766Z,19.27
2019-06-08T04:05:16.199Z,19.10
2019-06-08T04:06:53.756Z,20.17
2019-06-08T04:08:30.583Z,20.60
2019-06-08T04:10:09.074Z,18.73
2019-06-08T04:11:46.806Z,18.50
2019-06-08T04:13:25.193Z,19.17
2019-06-08T04:15:01.746Z,18.97
2019-06-08T04:16:40.140Z,19.13
2019-06-08T04:18:17.354Z,20.43
2019-06-08T04:20:09.738Z,20.13
2019-06-08T04:21:32.877Z,19.90
2019-06-08T04:23:10.254Z,19.33
2019-06-08T04:24:46.747Z,20.67
2019-06-08T04:26:24.154Z,20.20
2019-06-08T04:28:00.650Z,20.70
2019-06-08T04:29:39.472Z,21.33
2019-06-08T04:31:16.196Z,21.27
2019-06-08T04:32:53.538Z,21.83
2019-06-08T04:34:30.112Z,19.73
2019-06-08T04:36:07.543Z,20.00
2019-06-08T04:37:44.788Z,21.10
2019-06-08T04:40:09.495Z,20.53
2019-06-08T04:41:47.124Z,21.57
2019-06-08T04:43:24.838Z,20.87
2019-06-08T04:45:02.145Z,21.70
2019-06-08T04:46:40.623Z,20.87
2019-06-08T04:48:17.719Z,21.10
2019-06-08T04:49:53.703Z,21.70
2019-06-08T04:51:31.294Z,21.67
2019-06-08T04:53:07.503Z,21.87
2019-06-08T04:54:45.160Z,21.73
2019-06-08T04:56:24.362Z,22.93
2019-06-08T04:58:01.719Z,21.90
2019-06-08T04:59:39.032Z,22.87
2019-06-08T05:01:17.282Z,22.37
2019-06-08T05:02:54.448Z,21.93
2019-06-08T05:04:31.702Z,22.30
2019-06-08T05:06:08.423Z,22.87
2019-06-08T05:07:47.855Z,25.30
2019-06-08T05:09:24.712Z,24.80
2019-06-08T05:11:02.366Z,23.63
2019-06-08T05:12:39.286Z,25.27
2019-06-08T05:14:16.660Z,26.50
2019-06-08T05:15:53.204Z,25.30
2019-06-08T05:17:30.637Z,23.60
2019-06-08T05:19:07.186Z,26.03
2019-06-08T05:20:47.252Z,23.73
2019-06-08T05:22:23.126Z,24.13
2019-06-08T05:24:00.526Z,24.20
2019-06-08T05:25:36.994Z,22.93
2019-06-08T05:27:14.490Z,23.73
2019-06-08T05:28:51.260Z,22.07
2019-06-08T05:30:28.722Z,21.17
2019-06-08T05:32:05.446Z,24.20
2019-06-08T05:33:43.430Z,24.50
2019-06-08T05:35:20.295Z,24.50
2019-06-08T05:36:58.293Z,23.63
2019-06-08T05:38:35.014Z,30.40
2019-06-08T05:40:12.935Z,24.27
2019-06-08T05:41:49.810Z,43.13
2019-06-08T05:43:27.314Z,23.27
2019-06-08T05:45:08.036Z,23.93
2019-06-08T05:46:45.777Z,22.97
2019-06-08T05:48:22.468Z,24.57
2019-06-08T05:50:00.852Z,25.47
2019-06-08T05:51:37.294Z,22.30
2019-06-08T05:53:14.714Z,24.70
2019-06-08T05:54:51.344Z,23.80
2019-06-08T05:56:28.662Z,23.17
2019-06-08T05:58:05.279Z,21.53
2019-06-08T05:59:44.069Z,22.23
2019-06-08T06:01:21.265Z,30.27
2019-06-08T06:02:59.121Z,19.63
2019-06-08T06:04:35.835Z,18.33
2019-06-08T06:06:13.122Z,19.57
2019-06-08T06:07:49.111Z,32.90
2019-06-08T06:09:26.469Z,38.70
2019-06-08T06:11:03.068Z,15.47
2019-06-08T06:12:40.923Z,15.53
2019-06-08T06:14:17.678Z,16.67
2019-06-08T06:15:55.198Z,22.87
2019-06-08T06:17:31.716Z,15.97
2019-06-08T06:19:09.271Z,14.97
2019-06-08T06:20:47.187Z,15.40
2019-06-08T06:22:24.786Z,16.13
2019-06-08T06:24:01.432Z,17.20
2019-06-08T06:25:38.827Z,18.23
2019-06-08T06:27:15.437Z,14.97
2019-06-08T06:28:52.963Z,14.87
2019-06-08T06:30:29.796Z,15.60
2019-06-08T06:32:07.293Z,14.33
2019-06-08T06:33:43.939Z,15.87
2019-06-08T06:35:21.412Z,14.87
2019-06-08T06:36:58.352Z,14.27
2019-06-08T06:38:35.206Z,14.77
2019-06-08T06:40:11.941Z,16.17
2019-06-08T06:41:49.946Z,14.33
2019-06-08T06:43:26.700Z,14.30
2019-06-08T06:45:06.284Z,15.68
2019-06-08T06:46:43.968Z,15.10
2019-06-08T06:48:23.513Z,14.83
2019-06-08T06:49:59.622Z,13.47
2019-06-08T06:51:37.113Z,14.37
2019-06-08T06:53:13.807Z,14.13
2019-06-08T06:54:51.321Z,12.60
2019-06-08T06:56:28.019Z,12.20
2019-06-08T06:58:05.530Z,12.43
2019-06-08T06:59:43.311Z,11.93
2019-06-08T07:01:20.884Z,12.40
2019-06-08T07:02:59.417Z,13.10
2019-06-08T07:04:36.831Z,12.43
2019-06-08T07:06:14.371Z,12.93
2019-06-08T07:07:52.461Z,13.00
2019-06-08T07:09:29.334Z,14.87
2019-06-08T07:11:06.762Z,13.78
2019-06-08T07:12:44.420Z,14.63
2019-06-08T07:14:21.879Z,13.03
2019-06-08T07:15:58.613Z,11.30
2019-06-08T07:17:35.937Z,10.93
2019-06-08T07:19:12.965Z,11.28
2019-06-08T07:20:50.313Z,11.68
2019-06-08T07:22:26.869Z,10.48
2019-06-08T07:24:04.362Z,10.70
2019-06-08T07:25:41.111Z,10.32
2019-06-08T07:27:18.537Z,10.05
2019-06-08T07:28:55.432Z,12.55
2019-06-08T07:30:33.239Z,12.55
2019-06-08T07:32:09.840Z,12.28
2019-06-08T07:33:48.747Z,11.78
2019-06-08T07:35:25.582Z,12.07
2019-06-08T07:37:02.827Z,13.40
2019-06-08T07:38:39.329Z,12.65
2019-06-08T07:40:17.028Z,13.32
2019-06-08T07:41:54.285Z,13.48
2019-06-08T07:43:31.920Z,16.60
2019-06-08T07:45:09.550Z,21.40
2019-06-08T07:46:47.059Z,14.95
2019-06-08T07:48:24.014Z,13.62
2019-06-08T07:50:04.608Z,13.93
2019-06-08T07:51:39.813Z,13.00
2019-06-08T07:53:17.159Z,13.45
2019-06-08T07:54:54.682Z,12.95
2019-06-08T07:56:32.286Z,12.33
2019-06-08T07:58:08.949Z,12.73
2019-06-08T07:59:47.588Z,12.58
2019-06-08T08:01:35.875Z,12.37
2019-06-08T08:03:03.653Z,12.63
2019-06-08T08:04:40.137Z,13.35
2019-06-08T08:06:17.614Z,13.40
2019-06-08T08:07:54.838Z,13.98
2019-06-08T08:09:32.292Z,13.60
2019-06-08T08:11:09.160Z,14.53
2019-06-08T08:12:49.289Z,12.35
2019-06-08T08:14:25.994Z,11.22
2019-06-08T08:16:03.334Z,10.63
2019-06-08T08:17:39.967Z,9.68
2019-06-08T08:19:17.372Z,11.90
2019-06-08T08:20:55.829Z,11.38
2019-06-08T08:22:33.192Z,12.03
2019-06-08T08:24:09.907Z,11.48
2019-06-08T08:25:47.532Z,9.13
2019-06-08T08:27:24.323Z,10.00
2019-06-08T08:29:03.317Z,10.75
2019-06-08T08:30:40.052Z,10.35
2019-06-08T08:32:18.801Z,10.10
2019-06-08T08:33:58.315Z,11.65
2019-06-08T08:35:34.863Z,11.00
2019-06-08T08:37:11.477Z,10.58
2019-06-08T08:38:51.559Z,9.53
2019-06-08T08:40:28.285Z,10.25
2019-06-08T08:42:07.920Z,9.90
2019-06-08T08:43:44.054Z,9.05
2019-06-08T08:45:21.837Z,9.43
2019-06-08T08:47:01.335Z,9.53
2019-06-08T08:48:37.959Z,9.33
2019-06-08T08:50:14.766Z,10.08
2019-06-08T08:51:52.250Z,9.03
2019-06-08T08:53:28.951Z,9.13
2019-06-08T08:55:08.272Z,9.73
2019-06-08T08:56:50.410Z,9.60
2019-06-08T08:58:25.149Z,9.28
2019-06-08T09:00:05.025Z,7.53
2019-06-08T09:01:41.752Z,7.78
2019-06-08T09:03:28.979Z,7.85
2019-06-08T09:05:01.983Z,8.00
2019-06-08T09:06:38.131Z,8.80
2019-06-08T09:08:18.094Z,7.87
2019-06-08T09:09:55.545Z,9.18
2019-06-08T09:11:33.550Z,8.83
2019-06-08T09:13:12.071Z,9.45
2019-06-08T09:14:49.324Z,8.73
2019-06-08T09:16:28.561Z,8.60
2019-06-08T09:18:07.964Z,8.53
2019-06-08T09:19:43.517Z,9.00
2019-06-08T09:21:22.334Z,8.38
2019-06-08T09:23:08.999Z,8.98
2019-06-08T09:24:39.202Z,9.70
2019-06-08T09:26:17.618Z,9.53
2019-06-08T09:27:56.418Z,8.60
2019-06-08T09:29:33.890Z,8.65
2019-06-08T09:31:12.941Z,9.63
2019-06-08T09:32:49.910Z,8.33
2019-06-08T09:34:28.279Z,9.45
2019-06-08T09:36:07.331Z,8.63
2019-06-08T09:37:44.390Z,10.68
2019-06-08T09:39:20.925Z,11.68
2019-06-08T09:41:01.247Z,11.68
2019-06-08T09:42:37.057Z,10.78
2019-06-08T09:44:14.618Z,10.10
2019-06-08T09:45:51.225Z,10.20
2019-06-08T09:47:29.097Z,10.30
2019-06-08T09:49:11.000Z,9.80
2019-06-08T09:50:45.079Z,9.60
2019-06-08T09:52:21.803Z,10.20
2019-06-08T09:54:02.639Z,10.80
2019-06-08T09:55:38.188Z,9.73
2019-06-08T09:57:18.921Z,10.30
2019-06-08T09:58:57.399Z,9.10
2019-06-08T10:00:37.659Z,9.80
2019-06-08T10:02:13.996Z,9.43
2019-06-08T10:03:51.380Z,9.68
2019-06-08T10:05:28.163Z,9.43
2019-06-08T10:07:05.815Z,9.75
2019-06-08T10:08:43.279Z,9.68
2019-06-08T10:10:21.633Z,9.38
2019-06-08T10:11:59.586Z,9.58
2019-06-08T10:13:39.148Z,9.43
2019-06-08T10:15:18.307Z,9.83
2019-06-08T10:16:56.281Z,10.35
2019-06-08T10:18:33.258Z,11.22
2019-06-08T10:20:11.968Z,10.53
2019-06-08T10:21:48.577Z,11.55
2019-06-08T10:23:33.510Z,10.70
2019-06-08T10:25:11.209Z,11.78
2019-06-08T10:26:48.115Z,9.48
2019-06-08T10:28:24.797Z,11.55
2019-06-08T10:30:04.290Z,9.40
2019-06-08T10:31:43.660Z,9.23
2019-06-08T10:33:19.763Z,9.80
2019-06-08T10:34:58.772Z,9.63
2019-06-08T10:36:38.174Z,7.33
2019-06-08T10:38:14.008Z,7.20
2019-06-08T10:39:51.503Z,7.83
2019-06-08T10:41:28.872Z,8.88
2019-06-08T10:43:07.330Z,8.43
2019-06-08T10:44:44.696Z,6.97
2019-06-08T10:46:22.136Z,8.18
2019-06-08T10:48:00.822Z,7.50
2019-06-08T10:49:38.526Z,7.67
2019-06-08T10:51:15.335Z,7.90
2019-06-08T10:52:52.756Z,8.50
2019-06-08T10:54:29.391Z,8.60
2019-06-08T10:56:10.383Z,8.60
2019-06-08T10:57:47.610Z,8.65
2019-06-08T10:59:24.317Z,10.58
2019-06-08T11:01:04.169Z,10.40
2019-06-08T11:02:40.879Z,9.98
2019-06-08T11:04:18.627Z,11.57
2019-06-08T11:05:58.594Z,10.55
2019-06-08T11:07:35.082Z,10.75
2019-06-08T11:09:14.959Z,10.60
2019-06-08T11:10:51.803Z,10.28
2019-06-08T11:12:29.201Z,9.98
2019-06-08T11:14:07.952Z,9.73
2019-06-08T11:15:48.003Z,9.68
2019-06-08T11:17:23.718Z,11.97
2019-06-08T11:19:02.741Z,10.43
2019-06-08T11:20:39.481Z,10.80
2019-06-08T11:22:18.021Z,9.65
2019-06-08T11:24:10.832Z,9.80
2019-06-08T11:25:37.559Z,11.10
2019-06-08T11:27:13.791Z,9.95
2019-06-08T11:28:51.412Z,11.33
2019-06-08T11:30:30.576Z,10.75
2019-06-08T11:32:11.823Z,10.58
2019-06-08T11:33:45.743Z,10.72
2019-06-08T11:35:23.224Z,9.95
2019-06-08T11:37:01.873Z,10.25
2019-06-08T11:38:39.077Z,10.08
2019-06-08T11:40:20.339Z,9.30
2019-06-08T11:41:55.072Z,9.05
2019-06-08T11:43:31.479Z,9.00
2019-06-08T11:45:12.992Z,10.13
2019-06-08T11:46:52.930Z,10.13
2019-06-08T11:48:30.344Z,10.55
2019-06-08T11:50:13.110Z,9.43
2019-06-08T11:51:49.824Z,9.38
2019-06-08T11:53:28.805Z,9.45
2019-06-08T11:55:11.250Z,9.53
2019-06-08T11:56:48.226Z,9.83
2019-06-08T11:58:28.289Z,9.40
2019-06-08T12:00:24.043Z,9.45
2019-06-08T12:01:50.983Z,8.13
2019-06-08T12:03:30.213Z,8.13
2019-06-08T12:05:11.123Z,8.35
2019-06-08T12:06:48.383Z,8.25
2019-06-08T12:08:28.544Z,8.63
2019-06-08T12:10:07.067Z,8.60
2019-06-08T12:11:44.811Z,7.72
2019-06-08T12:13:22.315Z,7.50
2019-06-08T12:14:59.637Z,7.60
2019-06-08T12:16:37.823Z,7.83
2019-06-08T12:18:17.962Z,7.30
2019-06-08T12:19:53.771Z,7.65
2019-06-08T12:21:31.460Z,7.90
2019-06-08T12:23:08.023Z,8.18
2019-06-08T12:24:45.425Z,8.10
2019-06-08T12:26:22.139Z,7.70
2019-06-08T12:27:59.487Z,8.98
2019-06-08T12:29:36.430Z,8.15
2019-06-08T12:31:17.707Z,8.18
2019-06-08T12:32:52.702Z,8.70
2019-06-08T12:34:30.122Z,8.80
2019-06-08T12:36:09.137Z,9.73
2019-06-08T12:37:48.344Z,8.73
2019-06-08T12:39:24.848Z,8.80
2019-06-08T12:41:02.119Z,8.83
2019-06-08T12:42:38.686Z,9.20
2019-06-08T12:44:17.381Z,9.38
2019-06-08T12:45:54.460Z,9.43
2019-06-08T12:47:32.328Z,9.78
2019-06-08T12:49:11.261Z,9.13
2019-06-08T12:50:48.230Z,8.78
2019-06-08T12:52:24.803Z,9.13
2019-06-08T12:54:02.298Z,8.70
2019-06-08T12:55:38.904Z,7.97
2019-06-08T12:57:17.575Z,8.73
2019-06-08T12:58:54.558Z,8.73
2019-06-08T13:00:32.951Z,8.60
2019-06-08T13:02:13.983Z,8.68
2019-06-08T13:03:49.685Z,8.95
2019-06-08T13:05:27.625Z,7.95
2019-06-08T13:07:05.720Z,8.40
2019-06-08T13:08:42.324Z,9.53
2019-06-08T13:10:23.900Z,9.23
2019-06-08T13:11:59.418Z,8.55
2019-06-08T13:13:37.749Z,8.25
2019-06-08T13:15:15.167Z,8.00
2019-06-08T13:16:53.022Z,9.10
2019-06-08T13:18:30.020Z,8.50
2019-06-08T13:20:20.503Z,8.38
2019-06-08T13:21:58.183Z,8.38
2019-06-08T13:23:34.420Z,8.58
2019-06-08T13:25:23.724Z,8.90
2019-06-08T13:26:50.793Z,8.58
2019-06-08T13:28:28.464Z,8.70
2019-06-08T13:30:07.542Z,8.33
2019-06-08T13:31:45.083Z,8.90
2019-06-08T13:33:21.557Z,8.55
2019-06-08T13:34:58.911Z,8.38
2019-06-08T13:36:38.666Z,8.05
2019-06-08T13:38:17.301Z,7.78
2019-06-08T13:39:53.894Z,8.60
2019-06-08T13:41:32.128Z,8.58
2019-06-08T13:43:08.766Z,8.38
2019-06-08T13:44:47.478Z,8.70
2019-06-08T13:46:24.177Z,8.25
2019-06-08T13:48:01.562Z,8.95
2019-06-08T13:49:38.478Z,8.38
2019-06-08T13:51:19.373Z,8.43
2019-06-08T13:52:54.338Z,8.25
2019-06-08T13:54:31.922Z,8.83
2019-06-08T13:56:08.529Z,7.85
2019-06-08T13:57:45.860Z,8.63
2019-06-08T13:59:27.313Z,8.85
2019-06-08T14:01:01.562Z,8.23
2019-06-08T14:02:39.881Z,9.05
2019-06-08T14:04:19.174Z,8.43
2019-06-08T14:05:55.793Z,8.55
2019-06-08T14:07:34.856Z,8.28
2019-06-08T14:09:11.587Z,8.68
2019-06-08T14:10:49.185Z,8.23
2019-06-08T14:12:30.697Z,8.08
2019-06-08T14:14:05.556Z,8.25
2019-06-08T14:15:42.806Z,7.90
2019-06-08T14:17:23.807Z,7.78
2019-06-08T14:18:58.760Z,8.23
2019-06-08T14:20:38.607Z,8.63
2019-06-08T14:22:14.636Z,8.60
2019-06-08T14:23:51.906Z,8.13
2019-06-08T14:25:30.085Z,8.53
2019-06-08T14:27:08.313Z,8.35
2019-06-08T14:28:45.008Z,8.60
2019-06-08T14:30:23.738Z,9.25
2019-06-08T14:32:00.686Z,9.50
2019-06-08T14:33:38.166Z,8.98
2019-06-08T14:35:14.832Z,9.93
2019-06-08T14:36:52.145Z,9.83
2019-06-08T14:38:37.980Z,10.45
2019-06-08T14:40:09.979Z,10.43
2019-06-08T14:41:47.537Z,9.90
2019-06-08T14:43:29.675Z,10.10
2019-06-08T14:45:07.771Z,11.10
2019-06-08T14:46:48.045Z,10.48
2019-06-08T14:48:31.179Z,11.00
2019-06-08T14:50:07.836Z,11.35
2019-06-08T14:51:49.954Z,11.38
2019-06-08T14:53:27.411Z,12.05
2019-06-08T14:55:07.807Z,12.88
2019-06-08T14:56:44.671Z,13.03
2019-06-08T14:58:24.092Z,13.70
2019-06-08T15:00:08.380Z,15.10
2019-06-08T15:01:39.032Z,14.73
2019-06-08T15:03:18.046Z,14.85
2019-06-08T15:04:54.975Z,14.83
2019-06-08T15:06:34.211Z,14.85
2019-06-08T15:08:10.852Z,14.23
2019-06-08T15:09:48.705Z,13.68
2019-06-08T15:11:27.781Z,14.75
2019-06-08T15:13:04.873Z,14.65
2019-06-08T15:14:41.532Z,14.63
2019-06-08T15:16:19.778Z,14.20
2019-06-08T15:17:58.138Z,13.75
2019-06-08T15:19:35.949Z,14.35
2019-06-08T15:21:12.523Z,14.38
2019-06-08T15:22:50.253Z,14.75
2019-06-08T15:24:29.313Z,16.00
2019-06-08T15:26:20.433Z,14.73
2019-06-08T15:27:44.960Z,15.38
2019-06-08T15:29:22.889Z,15.13
2019-06-08T15:31:00.121Z,15.25
2019-06-08T15:32:40.320Z,14.33
2019-06-08T15:34:17.857Z,14.33
2019-06-08T15:35:57.526Z,14.55
2019-06-08T15:37:34.083Z,14.50
2019-06-08T15:39:11.508Z,14.50
2019-06-08T15:40:48.210Z,16.45
2019-06-08T15:42:28.693Z,21.02
2019-06-08T15:44:04.222Z,24.27
2019-06-08T15:45:41.676Z,29.35
2019-06-08T15:47:18.297Z,28.15
2019-06-08T15:48:55.705Z,25.60
2019-06-08T15:50:32.717Z,20.80
2019-06-08T15:52:10.203Z,16.85
2019-06-08T15:53:48.134Z,15.70
2019-06-08T15:55:26.647Z,16.32
2019-06-08T15:57:04.293Z,16.02
2019-06-08T15:58:41.622Z,15.45
2019-06-08T16:00:18.589Z,16.32
2019-06-08T16:01:55.944Z,15.78
2019-06-08T16:03:33.507Z,18.73
2019-06-08T16:05:11.531Z,16.05
2019-06-08T16:06:48.706Z,16.52
2019-06-08T16:08:26.236Z,15.35
2019-06-08T16:10:03.108Z,16.75
2019-06-08T16:11:40.741Z,15.72
2019-06-08T16:13:17.351Z,14.40
2019-06-08T16:14:55.263Z,14.55
2019-06-08T16:16:33.385Z,14.50
2019-06-08T16:18:10.926Z,14.50
2019-06-08T16:19:47.977Z,15.93
2019-06-08T16:21:25.601Z,14.38
2019-06-08T16:23:03.114Z,14.18
2019-06-08T16:24:40.513Z,13.65
2019-06-08T16:26:17.396Z,13.22
2019-06-08T16:27:54.791Z,13.60
2019-06-08T16:29:31.345Z,13.65
2019-06-08T16:31:11.835Z,13.50
2019-06-08T16:32:48.889Z,13.38
2019-06-08T16:34:27.275Z,13.50
2019-06-08T16:36:04.123Z,12.80
2019-06-08T16:37:41.473Z,11.97
2019-06-08T16:40:57.257Z,11.28
2019-06-08T16:42:34.659Z,11.60
2019-06-08T16:44:11.267Z,14.43
2019-06-08T16:45:48.665Z,13.00
2019-06-08T16:47:25.467Z,10.60
2019-06-08T16:49:02.796Z,10.90
2019-06-08T16:50:39.359Z,11.30
2019-06-08T16:52:17.358Z,11.30
2019-06-08T16:53:54.065Z,10.33
2019-06-08T16:55:32.083Z,9.70
2019-06-08T16:57:10.937Z,10.07
2019-06-08T16:58:48.175Z,9.17
2019-06-08T17:00:38.363Z,9.83
2019-06-08T17:02:05.000Z,8.93
2019-06-08T17:03:41.608Z,8.27
2019-06-08T17:05:19.090Z,8.27
2019-06-08T17:06:55.643Z,7.60
2019-06-08T17:08:35.775Z,8.00
2019-06-08T17:10:11.674Z,7.87
2019-06-08T17:11:49.010Z,7.27
2019-06-08T17:13:25.732Z,7.47
2019-06-08T17:15:03.243Z,7.10
2019-06-08T17:16:40.628Z,7.30
2019-06-08T17:18:20.695Z,7.07
2019-06-08T17:19:57.239Z,7.40
2019-06-08T17:21:34.664Z,6.60
2019-06-08T17:23:12.226Z,7.20
2019-06-08T17:24:50.430Z,7.07
2019-06-08T17:26:27.071Z,6.93
2019-06-08T17:28:04.561Z,6.57
2019-06-08T17:29:41.213Z,6.57
2019-06-08T17:31:18.700Z,5.70
2019-06-08T17:32:55.287Z,6.03
2019-06-08T17:34:36.567Z,5.53
2019-06-08T17:36:13.130Z,5.60
2019-06-08T17:37:50.483Z,6.03
2019-06-08T17:39:29.372Z,5.93
2019-06-08T17:41:06.611Z,6.07
2019-06-08T17:42:43.935Z,5.67
2019-06-08T17:44:21.503Z,5.53
2019-06-08T17:45:58.359Z,6.07
2019-06-08T17:47:36.397Z,6.77
2019-06-08T17:49:16.952Z,5.93
2019-06-08T17:50:54.525Z,6.43
2019-06-08T17:52:32.689Z,7.43
2019-06-08T17:54:10.127Z,6.70
2019-06-08T17:55:46.672Z,8.20
2019-06-08T17:57:24.070Z,8.27
2019-06-08T17:59:00.627Z,6.30
2019-06-08T18:00:37.944Z,7.30
2019-06-08T18:02:21.282Z,7.23
2019-06-08T18:03:53.612Z,6.50
2019-06-08T18:05:30.365Z,7.00
2019-06-08T18:07:08.373Z,6.27
2019-06-08T18:08:45.651Z,7.40
2019-06-08T18:10:24.131Z,8.07
2019-06-08T18:12:00.630Z,6.97
2019-06-08T18:13:40.788Z,6.83
2019-06-08T18:15:17.499Z,6.33
2019-06-08T18:16:57.350Z,6.40
2019-06-08T18:18:34.118Z,7.10
2019-06-08T18:20:17.811Z,7.03
2019-06-08T18:22:02.689Z,7.40
2019-06-08T18:23:39.152Z,7.17
2019-06-08T18:25:17.427Z,6.80
2019-06-08T18:26:58.543Z,5.90
2019-06-08T18:28:38.835Z,5.93
2019-06-08T18:30:18.929Z,5.57
2019-06-08T18:31:58.210Z,5.20
2019-06-08T18:33:34.689Z,5.33
2019-06-08T18:35:12.427Z,5.17
2019-06-08T18:36:49.898Z,5.60
2019-06-08T18:38:27.436Z,5.30
2019-06-08T18:40:07.276Z,4.60
2019-06-08T18:41:48.240Z,5.70
2019-06-08T18:43:27.979Z,5.90
2019-06-08T18:45:07.405Z,4.70
2019-06-08T18:46:45.094Z,4.97
2019-06-08T18:48:22.893Z,4.53
2019-06-08T18:49:59.743Z,4.70
2019-06-08T18:51:38.195Z,4.40
2019-06-08T18:53:15.503Z,4.37
2019-06-08T18:54:52.953Z,4.70
2019-06-08T18:56:29.357Z,4.87
2019-06-08T18:58:17.593Z,4.70
2019-06-08T18:59:48.681Z,4.77
2019-06-08T19:01:24.285Z,4.10
2019-06-08T19:03:00.885Z,4.70
2019-06-08T19:04:40.044Z,4.70
2019-06-08T19:06:18.717Z,4.70
2019-06-08T19:07:57.225Z,4.50
2019-06-08T19:09:34.601Z,4.77
2019-06-08T19:11:12.530Z,4.37
2019-06-08T19:12:50.710Z,4.57
2019-06-08T19:14:29.025Z,4.50
2019-06-08T19:16:07.515Z,4.27
2019-06-08T19:17:51.316Z,4.37
2019-06-08T19:19:23.104Z,4.67
2019-06-08T19:21:00.468Z,5.10
2019-06-08T19:22:42.861Z,4.90
2019-06-08T19:24:17.607Z,5.20
2019-06-08T19:25:54.550Z,5.97
2019-06-08T19:27:40.630Z,5.40
2019-06-08T19:29:13.057Z,5.80
2019-06-08T19:30:51.616Z,5.60
2019-06-08T19:32:28.556Z,5.00
2019-06-08T19:34:07.625Z,4.70
2019-06-08T19:35:44.594Z,4.53
2019-06-08T19:37:22.436Z,4.93
2019-06-08T19:38:59.004Z,4.70
2019-06-08T19:40:38.801Z,4.40
2019-06-08T19:42:14.580Z,4.53
2019-06-08T19:43:54.933Z,4.37
2019-06-08T19:45:31.559Z,4.63
2019-06-08T19:47:09.270Z,4.80
2019-06-08T19:48:53.287Z,4.73
2019-06-08T19:50:25.108Z,5.67
2019-06-08T19:52:01.663Z,4.70
2019-06-08T19:53:43.379Z,4.90
2019-06-08T19:55:18.081Z,5.10
2019-06-08T19:56:57.431Z,5.00
2019-06-08T19:58:34.823Z,4.67
2019-06-08T20:00:14.839Z,5.03
2019-06-08T20:01:56.092Z,4.43
2019-06-08T20:03:32.691Z,4.53
2019-06-08T20:05:10.987Z,4.60
2019-06-08T20:06:49.022Z,4.20
2019-06-08T20:08:29.112Z,4.30
2019-06-08T20:10:09.868Z,4.30
2019-06-08T20:11:53.474Z,3.77
2019-06-08T20:13:25.469Z,3.87
2019-06-08T20:15:02.815Z,3.83
2019-06-08T20:16:40.501Z,3.80
2019-06-08T20:18:18.052Z,4.00
2019-06-08T20:19:54.648Z,3.63
2019-06-08T20:21:31.886Z,3.50
2019-06-08T20:23:09.802Z,4.03
2019-06-08T20:24:52.160Z,3.90
2019-06-08T20:26:27.979Z,3.70
2019-06-08T20:28:04.629Z,3.60
2019-06-08T20:29:41.299Z,3.57
2019-06-08T20:31:18.785Z,3.30
2019-06-08T20:32:57.414Z,3.30
2019-06-08T20:34:34.349Z,3.10
2019-06-08T20:36:10.887Z,3.67
2019-06-08T20:37:48.272Z,3.30
2019-06-08T20:39:27.197Z,3.37
2019-06-08T20:41:04.102Z,2.67
2019-06-08T20:42:42.161Z,3.07
2019-06-08T20:44:19.687Z,3.60
2019-06-08T20:45:57.491Z,3.70
2019-06-08T20:47:36.766Z,3.03
2019-06-08T20:49:13.521Z,2.83
2019-06-08T20:50:52.243Z,3.50
2019-06-08T20:52:29.137Z,3.70
2019-06-08T20:54:07.899Z,3.33
2019-06-08T20:55:45.207Z,3.00
2019-06-08T20:57:23.156Z,3.13
2019-06-08T20:58:59.933Z,2.83
2019-06-08T21:00:37.786Z,3.20
2019-06-08T21:02:15.539Z,2.80
2019-06-08T21:03:54.242Z,2.50
2019-06-08T21:05:31.043Z,3.07
2019-06-08T21:07:08.997Z,3.00
2019-06-08T21:08:48.677Z,2.77
2019-06-08T21:10:28.145Z,2.60
2019-06-08T21:12:05.349Z,3.10
2019-06-08T21:13:45.148Z,3.07
2019-06-08T21:15:21.359Z,3.37
2019-06-08T21:16:59.566Z,2.97
2019-06-08T21:18:37.975Z,2.63
2019-06-08T21:20:17.579Z,2.87